createdAt,value
2017-09-23T00:02:11.933Z,11.30
2017-09-23T00:04:39.481Z,10.05
2017-09-23T00:07:07.741Z,11.48
2017-09-23T00:09:35.286Z,10.57
2017-09-23T00:12:02.801Z,9.98
2017-09-23T00:14:30.336Z,12.27
2017-09-23T00:16:57.853Z,11.35
2017-09-23T00:19:25.386Z,12.23
2017-09-23T00:21:52.893Z,12.25
2017-09-23T00:24:20.413Z,12.57
2017-09-23T00:26:47.944Z,12.43
2017-09-23T00:29:15.461Z,13.50
2017-09-23T00:31:42.993Z,13.10
2017-09-23T00:34:10.528Z,12.70
2017-09-23T00:36:38.076Z,16.85
2017-09-23T00:39:05.618Z,16.70
2017-09-23T00:41:33.920Z,15.50
2017-09-23T00:44:01.467Z,11.70
2017-09-23T00:46:29.025Z,15.10
2017-09-23T00:48:56.615Z,11.98
2017-09-23T00:51:24.124Z,11.90
2017-09-23T00:53:51.664Z,11.50
2017-09-23T00:56:19.188Z,11.98
2017-09-23T00:58:46.710Z,12.88
2017-09-23T01:01:15.012Z,16.92
2017-09-23T01:03:42.536Z,12.00
2017-09-23T01:06:10.070Z,13.77
2017-09-23T01:08:37.582Z,12.32
2017-09-23T01:11:05.878Z,13.73
2017-09-23T01:13:33.393Z,12.18
2017-09-23T01:16:00.921Z,12.65
2017-09-23T01:18:28.457Z,14.10
2017-09-23T01:20:55.977Z,12.80
2017-09-23T01:23:23.526Z,13.98
2017-09-23T01:25:51.029Z,14.10
2017-09-23T01:28:18.560Z,11.77
2017-09-23T01:30:46.077Z,13.68
2017-09-23T01:33:13.607Z,12.35
2017-09-23T01:35:41.166Z,13.73
2017-09-23T01:38:08.706Z,16.12
2017-09-23T01:40:37.046Z,15.60
2017-09-23T01:43:04.562Z,16.33
2017-09-23T01:45:32.100Z,14.13
2017-09-23T01:47:59.617Z,14.13
2017-09-23T01:50:27.150Z,13.52
2017-09-23T01:52:54.758Z,16.70
2017-09-23T01:55:22.262Z,16.60
2017-09-23T01:57:50.559Z,13.85
2017-09-23T02:00:18.074Z,12.50
2017-09-23T02:02:45.601Z,14.63
2017-09-23T02:05:14.025Z,12.95
2017-09-23T02:07:42.312Z,15.13
2017-09-23T02:10:10.611Z,15.55
2017-09-23T02:12:38.145Z,14.20
2017-09-23T02:15:06.472Z,11.43
2017-09-23T02:17:34.021Z,11.55
2017-09-23T02:20:01.553Z,14.55
2017-09-23T02:22:29.059Z,10.70
2017-09-23T02:24:56.576Z,15.13
2017-09-23T02:27:24.098Z,13.35
2017-09-23T02:29:51.604Z,17.58
2017-09-23T02:32:19.136Z,17.87
2017-09-23T02:34:47.412Z,18.35
2017-09-23T02:37:15.719Z,14.13
2017-09-23T02:39:43.228Z,17.17
2017-09-23T02:42:10.741Z,17.25
2017-09-23T02:44:38.293Z,15.50
2017-09-23T02:47:05.801Z,14.75
2017-09-23T02:49:33.325Z,17.27
2017-09-23T02:52:00.843Z,14.15
2017-09-23T02:54:29.155Z,12.25
2017-09-23T02:56:56.668Z,14.90
2017-09-23T02:59:24.185Z,16.10
2017-09-23T03:01:51.712Z,14.77
2017-09-23T03:04:19.988Z,15.70
2017-09-23T03:06:48.282Z,15.80
2017-09-23T03:09:16.572Z,13.85
2017-09-23T03:11:44.092Z,18.05
2017-09-23T03:14:11.630Z,16.40
2017-09-23T03:16:39.145Z,15.65
2017-09-23T03:19:06.689Z,14.70
2017-09-23T03:21:34.974Z,15.32
2017-09-23T03:24:02.504Z,18.05
2017-09-23T03:26:30.015Z,15.32
2017-09-23T03:28:57.529Z,18.42
2017-09-23T03:31:25.829Z,16.42
2017-09-23T03:33:53.354Z,16.80
2017-09-23T03:36:20.878Z,17.85
2017-09-23T03:38:48.437Z,15.20
2017-09-23T03:41:15.959Z,20.12
2017-09-23T03:43:44.460Z,17.73
2017-09-23T03:46:11.964Z,15.52
2017-09-23T03:48:39.573Z,15.05
2017-09-23T03:51:07.089Z,14.90
2017-09-23T03:53:34.616Z,18.30
2017-09-23T03:56:02.144Z,15.65
2017-09-23T03:58:30.441Z,15.68
2017-09-23T04:00:57.964Z,16.73
2017-09-23T04:03:26.257Z,18.48
2017-09-23T04:05:53.797Z,19.02
2017-09-23T04:08:21.312Z,19.60
2017-09-23T04:10:48.969Z,17.52
2017-09-23T04:13:16.472Z,20.37
2017-09-23T04:15:44.009Z,16.98
2017-09-23T04:18:11.516Z,22.10
2017-09-23T04:20:39.786Z,15.07
2017-09-23T04:23:07.311Z,16.12
2017-09-23T04:25:34.807Z,15.70
2017-09-23T04:28:03.100Z,17.25
2017-09-23T04:30:30.604Z,14.27
2017-09-23T04:32:58.153Z,16.05
2017-09-23T04:35:25.668Z,15.02
2017-09-23T04:37:53.952Z,18.23
2017-09-23T04:40:21.476Z,17.58
2017-09-23T04:42:48.990Z,18.77
2017-09-23T04:45:16.529Z,16.02
2017-09-23T04:47:44.810Z,23.12
2017-09-23T04:50:13.088Z,18.45
2017-09-23T04:52:41.401Z,18.85
2017-09-23T04:55:08.912Z,18.08
2017-09-23T04:57:37.208Z,19.80
2017-09-23T05:00:04.717Z,16.73
2017-09-23T05:02:32.255Z,19.25
2017-09-23T05:04:59.807Z,18.12
2017-09-23T05:07:27.318Z,15.80
2017-09-23T05:09:54.853Z,17.20
2017-09-23T05:12:22.371Z,19.12
2017-09-23T05:14:49.913Z,18.50
2017-09-23T05:17:18.201Z,18.08
2017-09-23T05:19:45.743Z,17.70
2017-09-23T05:22:13.262Z,17.80
2017-09-23T05:24:40.780Z,19.30
2017-09-23T05:27:09.081Z,19.10
2017-09-23T05:29:36.615Z,19.08
2017-09-23T05:32:04.922Z,21.58
2017-09-23T05:34:32.428Z,15.48
2017-09-23T05:36:59.958Z,15.77
2017-09-23T05:39:27.475Z,13.25
2017-09-23T05:41:55.753Z,16.27
2017-09-23T05:44:23.287Z,14.07
2017-09-23T05:46:50.812Z,16.50
2017-09-23T05:49:18.367Z,16.80
2017-09-23T05:51:45.896Z,17.62
2017-09-23T05:54:13.494Z,14.65
2017-09-23T05:56:41.029Z,14.60
2017-09-23T05:59:08.574Z,16.70
2017-09-23T06:01:36.170Z,15.52
2017-09-23T06:04:03.714Z,17.02
2017-09-23T06:06:31.288Z,22.17
2017-09-23T06:08:58.839Z,19.42
2017-09-23T06:11:26.373Z,18.30
2017-09-23T06:13:54.687Z,20.23
2017-09-23T06:16:22.230Z,18.65
2017-09-23T06:18:49.813Z,17.40
2017-09-23T06:21:17.353Z,16.30
2017-09-23T06:23:44.932Z,17.45
2017-09-23T06:26:12.473Z,24.90
2017-09-23T06:28:40.081Z,20.15
2017-09-23T06:31:07.629Z,22.73
2017-09-23T06:33:35.550Z,25.77
2017-09-23T06:36:03.185Z,23.02
2017-09-23T06:38:30.708Z,20.00
2017-09-23T06:40:58.313Z,20.30
2017-09-23T06:43:26.638Z,23.13
2017-09-23T06:45:54.204Z,23.65
2017-09-23T06:48:22.182Z,23.03
2017-09-23T06:50:49.733Z,22.30
2017-09-23T06:53:17.272Z,20.03
2017-09-23T06:55:44.809Z,25.15
2017-09-23T06:58:12.887Z,22.53
2017-09-23T07:00:40.608Z,24.17
2017-09-23T07:03:08.154Z,22.90
2017-09-23T07:05:35.661Z,14.87
2017-09-23T07:08:05.286Z,21.60
2017-09-23T07:10:32.818Z,21.63
2017-09-23T07:13:00.414Z,20.40
2017-09-23T07:15:28.000Z,25.43
2017-09-23T07:17:55.528Z,25.30
2017-09-23T07:20:23.125Z,22.20
2017-09-23T07:22:50.680Z,21.30
2017-09-23T07:25:18.244Z,20.43
2017-09-23T07:27:45.766Z,26.53
2017-09-23T07:30:14.117Z,25.03
2017-09-23T07:32:41.674Z,21.57
2017-09-23T07:35:09.210Z,20.80
2017-09-23T07:37:36.765Z,23.50
2017-09-23T07:40:04.339Z,24.13
2017-09-23T07:42:31.896Z,22.20
2017-09-23T07:44:59.769Z,25.57
2017-09-23T07:47:27.422Z,25.60
2017-09-23T07:49:54.970Z,30.80
2017-09-23T07:52:22.649Z,23.10
2017-09-23T07:54:50.172Z,23.20
2017-09-23T07:57:17.771Z,22.90
2017-09-23T07:59:45.429Z,25.00
2017-09-23T08:02:13.013Z,29.20
2017-09-23T08:04:40.588Z,26.27
2017-09-23T08:07:08.107Z,27.13
2017-09-23T08:09:35.697Z,24.87
2017-09-23T08:12:03.212Z,28.03
2017-09-23T08:14:30.816Z,28.13
2017-09-23T08:16:58.421Z,28.70
2017-09-23T08:19:25.995Z,25.50
2017-09-23T08:21:53.553Z,23.70
2017-09-23T08:24:21.081Z,29.80
2017-09-23T08:26:48.857Z,28.13
2017-09-23T08:29:16.460Z,26.17
2017-09-23T08:31:44.001Z,29.23
2017-09-23T08:34:11.557Z,24.27
2017-09-23T08:36:39.124Z,24.20
2017-09-23T08:39:06.723Z,26.13
2017-09-23T08:41:34.312Z,23.80
2017-09-23T08:44:01.929Z,20.90
2017-09-23T08:46:29.556Z,25.23
2017-09-23T08:48:57.094Z,24.20
2017-09-23T08:51:24.623Z,21.00
2017-09-23T08:53:53.130Z,26.90
2017-09-23T08:56:21.474Z,24.27
2017-09-23T08:58:49.368Z,20.07
2017-09-23T09:01:17.015Z,23.63
2017-09-23T09:03:44.891Z,23.87
2017-09-23T09:06:12.514Z,26.33
2017-09-23T09:08:40.118Z,26.27
2017-09-23T09:11:07.686Z,24.10
2017-09-23T09:13:36.098Z,23.10
2017-09-23T09:16:03.688Z,25.30
2017-09-23T09:18:31.314Z,27.10
2017-09-23T09:20:58.837Z,27.17
2017-09-23T09:23:26.371Z,24.80
2017-09-23T09:25:53.931Z,27.33
2017-09-23T09:28:21.496Z,23.97
2017-09-23T09:30:49.062Z,25.07
2017-09-23T09:33:16.605Z,24.93
2017-09-23T09:35:44.133Z,27.90
2017-09-23T09:38:12.455Z,24.23
2017-09-23T09:40:40.017Z,26.03
2017-09-23T09:43:07.541Z,37.83
2017-09-23T09:45:35.824Z,24.63
2017-09-23T09:48:04.138Z,23.00
2017-09-23T09:50:31.669Z,25.97
2017-09-23T09:52:59.191Z,24.10
2017-09-23T09:55:26.714Z,22.77
2017-09-23T09:57:54.257Z,27.27
2017-09-23T10:00:21.785Z,19.53
2017-09-23T10:02:50.101Z,21.67
2017-09-23T10:05:17.622Z,21.40
2017-09-23T10:07:45.918Z,26.00
2017-09-23T10:10:13.482Z,23.67
2017-09-23T10:12:47.769Z,22.73
2017-09-23T10:15:15.301Z,21.17
2017-09-23T10:17:43.658Z,24.53
2017-09-23T10:20:11.216Z,23.37
2017-09-23T10:22:38.770Z,24.13
2017-09-23T10:25:06.346Z,24.83
2017-09-23T10:27:33.904Z,22.80
2017-09-23T10:30:01.541Z,22.60
2017-09-23T10:32:29.087Z,26.67
2017-09-23T10:34:57.407Z,25.10
2017-09-23T10:37:24.968Z,24.10
2017-09-23T10:39:52.597Z,27.00
2017-09-23T10:42:20.976Z,22.43
2017-09-23T10:44:50.176Z,25.60
2017-09-23T10:47:17.821Z,23.60
2017-09-23T10:49:45.424Z,18.90
2017-09-23T10:52:13.030Z,18.00
2017-09-23T10:54:41.553Z,24.07
2017-09-23T10:57:09.134Z,22.70
2017-09-23T10:59:36.728Z,21.77
2017-09-23T11:02:04.342Z,17.40
2017-09-23T11:04:31.895Z,17.47
2017-09-23T11:06:59.425Z,17.10
2017-09-23T11:09:26.975Z,17.87
2017-09-23T11:11:54.512Z,17.30
2017-09-23T11:14:22.094Z,31.80
2017-09-23T11:16:49.670Z,19.70
2017-09-23T11:19:17.226Z,23.53
2017-09-23T11:21:44.776Z,28.57
2017-09-23T11:24:13.113Z,22.00
2017-09-23T11:26:40.666Z,24.47
2017-09-23T11:29:08.222Z,22.07
2017-09-23T11:31:35.789Z,22.00
2017-09-23T11:34:04.174Z,19.93
2017-09-23T11:36:31.709Z,18.30
2017-09-23T11:39:00.020Z,17.13
2017-09-23T11:41:27.546Z,20.17
2017-09-23T11:43:55.858Z,20.43
2017-09-23T11:46:23.384Z,20.00
2017-09-23T11:48:51.694Z,18.50
2017-09-23T11:51:19.241Z,17.87
2017-09-23T11:53:46.802Z,17.73
2017-09-23T11:56:14.345Z,19.00
2017-09-23T11:58:42.659Z,14.60
2017-09-23T12:01:10.262Z,18.27
2017-09-23T12:03:37.789Z,19.63
2017-09-23T12:06:05.331Z,19.23
2017-09-23T12:08:32.880Z,20.90
2017-09-23T12:11:00.464Z,19.93
2017-09-23T12:13:28.007Z,17.97
2017-09-23T12:15:55.523Z,22.90
2017-09-23T12:18:23.047Z,20.50
2017-09-23T12:20:50.562Z,21.80
2017-09-23T12:23:18.865Z,23.13
2017-09-23T12:25:46.409Z,17.40
2017-09-23T12:28:13.965Z,22.03
2017-09-23T12:30:41.481Z,21.03
2017-09-23T12:33:09.187Z,18.77
2017-09-23T12:35:36.709Z,17.60
2017-09-23T12:38:04.249Z,13.60
2017-09-23T12:40:31.833Z,16.07
2017-09-23T12:42:59.331Z,16.77
2017-09-23T12:45:27.636Z,18.27
2017-09-23T12:47:55.153Z,15.50
2017-09-23T12:50:23.456Z,16.47
2017-09-23T12:52:50.979Z,16.83
2017-09-23T12:55:18.497Z,15.63
2017-09-23T12:57:46.031Z,20.07
2017-09-23T13:00:13.545Z,12.93
2017-09-23T13:02:41.082Z,16.07
2017-09-23T13:05:08.601Z,16.00
2017-09-23T13:07:36.895Z,16.17
2017-09-23T13:10:04.433Z,16.40
2017-09-23T13:12:32.729Z,16.80
2017-09-23T13:15:00.258Z,13.63
2017-09-23T13:17:27.774Z,16.03
2017-09-23T13:19:55.316Z,13.83
2017-09-23T13:22:22.822Z,14.60
2017-09-23T13:24:50.341Z,12.73
2017-09-23T13:27:17.853Z,14.63
2017-09-23T13:29:45.395Z,11.63
2017-09-23T13:32:12.905Z,9.57
2017-09-23T13:34:40.438Z,12.83
2017-09-23T13:37:07.984Z,14.20
2017-09-23T13:39:35.502Z,10.97
2017-09-23T13:42:03.039Z,14.03
2017-09-23T13:44:30.557Z,13.57
2017-09-23T13:46:58.086Z,10.67
2017-09-23T13:49:25.592Z,13.00
2017-09-23T13:51:53.117Z,14.67
2017-09-23T13:54:20.819Z,12.97
2017-09-23T13:56:48.350Z,9.27
2017-09-23T13:59:15.863Z,9.13
2017-09-23T14:01:43.383Z,10.30
2017-09-23T14:04:10.922Z,8.80
2017-09-23T14:06:38.444Z,7.60
2017-09-23T14:09:05.981Z,8.90
2017-09-23T14:11:33.490Z,9.90
2017-09-23T14:14:01.021Z,12.03
2017-09-23T14:16:28.545Z,14.47
2017-09-23T14:18:56.936Z,11.20
2017-09-23T14:21:24.447Z,16.60
2017-09-23T14:23:51.949Z,16.33
2017-09-23T14:26:19.472Z,14.67
2017-09-23T14:28:47.036Z,14.47
2017-09-23T14:31:14.568Z,13.27
2017-09-23T14:33:42.094Z,12.23
2017-09-23T14:36:10.410Z,11.77
2017-09-23T14:38:37.917Z,10.43
2017-09-23T14:41:05.438Z,12.53
2017-09-23T14:43:32.956Z,10.67
2017-09-23T14:46:01.243Z,13.23
2017-09-23T14:48:29.551Z,10.93
2017-09-23T14:50:57.069Z,6.57
2017-09-23T14:53:24.593Z,6.33
2017-09-23T14:55:52.096Z,5.83
2017-09-23T14:58:20.394Z,6.63
2017-09-23T15:00:47.923Z,7.90
2017-09-23T15:03:15.463Z,8.13
2017-09-23T15:05:43.953Z,10.33
2017-09-23T15:08:11.523Z,8.60
2017-09-23T15:10:39.069Z,13.00
2017-09-23T15:13:06.665Z,9.40
2017-09-23T15:15:34.977Z,11.17
2017-09-23T15:18:02.505Z,12.00
2017-09-23T15:20:30.078Z,10.33
2017-09-23T15:22:57.760Z,8.63
2017-09-23T15:25:25.331Z,11.10
2017-09-23T15:27:52.936Z,12.20
2017-09-23T15:30:21.260Z,8.13
2017-09-23T15:32:49.605Z,9.23
2017-09-23T15:35:18.182Z,9.17
2017-09-23T15:37:46.527Z,10.73
2017-09-23T15:40:14.073Z,12.00
2017-09-23T15:42:41.646Z,11.97
2017-09-23T15:45:09.250Z,10.90
2017-09-23T15:47:37.579Z,10.90
2017-09-23T15:50:05.226Z,9.80
2017-09-23T15:52:32.826Z,11.10
2017-09-23T15:55:00.383Z,9.17
2017-09-23T15:57:27.907Z,11.50
2017-09-23T15:59:55.475Z,9.67
2017-09-23T16:02:23.010Z,9.20
2017-09-23T16:04:50.586Z,12.50
2017-09-23T16:07:18.123Z,13.87
2017-09-23T16:09:45.700Z,10.10
2017-09-23T16:12:13.227Z,11.03
2017-09-23T16:14:41.513Z,8.60
2017-09-23T16:17:09.934Z,11.10
2017-09-23T16:19:37.483Z,9.30
2017-09-23T16:22:05.029Z,16.03
2017-09-23T16:24:32.557Z,10.50
2017-09-23T16:27:00.077Z,11.57
2017-09-23T16:29:27.667Z,17.63
2017-09-23T16:31:55.210Z,12.60
2017-09-23T16:34:22.770Z,15.23
2017-09-23T16:36:50.333Z,15.77
2017-09-23T16:39:17.862Z,10.93
2017-09-23T16:41:45.546Z,9.47
2017-09-23T16:44:13.115Z,10.90
2017-09-23T16:46:40.710Z,11.60
2017-09-23T16:49:08.985Z,14.40
2017-09-23T16:51:36.522Z,9.60
2017-09-23T16:54:04.036Z,11.07
2017-09-23T16:56:31.583Z,11.00
2017-09-23T16:58:59.978Z,10.50
2017-09-23T17:01:27.530Z,14.80
2017-09-23T17:03:55.061Z,12.40
2017-09-23T17:06:22.602Z,13.80
2017-09-23T17:08:50.169Z,14.23
2017-09-23T17:11:17.908Z,18.70
2017-09-23T17:13:45.461Z,15.67
2017-09-23T17:16:12.994Z,13.70
2017-09-23T17:18:40.618Z,14.23
2017-09-23T17:21:08.157Z,17.17
2017-09-23T17:23:38.580Z,16.60
2017-09-23T17:26:06.125Z,14.13
2017-09-23T17:28:33.634Z,13.47
2017-09-23T17:31:01.279Z,17.10
2017-09-23T17:33:28.797Z,15.80
2017-09-23T17:35:56.362Z,13.95
2017-09-23T17:38:23.881Z,14.40
2017-09-23T17:40:51.390Z,18.57
2017-09-23T17:43:18.954Z,15.60
2017-09-23T17:45:46.583Z,18.65
2017-09-23T17:48:14.127Z,22.08
2017-09-23T17:50:41.658Z,22.37
2017-09-23T17:53:10.434Z,27.37
2017-09-23T17:55:37.969Z,38.40
2017-09-23T17:58:05.477Z,51.70
2017-09-23T18:00:33.004Z,47.88
2017-09-23T18:03:00.534Z,40.93
2017-09-23T18:05:28.085Z,32.85
2017-09-23T18:07:56.385Z,29.37
2017-09-23T18:10:23.929Z,22.62
2017-09-23T18:12:51.446Z,23.35
2017-09-23T18:15:18.968Z,21.58
2017-09-23T18:17:46.576Z,22.42
2017-09-23T18:20:14.152Z,22.87
2017-09-23T18:22:48.485Z,19.65
2017-09-23T18:25:16.777Z,20.08
2017-09-23T18:27:44.325Z,16.92
2017-09-23T18:30:12.613Z,18.00
2017-09-23T18:32:40.202Z,17.10
2017-09-23T18:35:07.743Z,16.60
2017-09-23T18:37:35.253Z,17.00
2017-09-23T18:40:02.790Z,15.52
2017-09-23T18:42:30.308Z,14.70
2017-09-23T18:44:58.685Z,18.33
2017-09-23T18:47:26.223Z,18.52
2017-09-23T18:49:53.752Z,16.05
2017-09-23T18:52:21.299Z,15.32
2017-09-23T18:54:48.825Z,18.92
2017-09-23T18:57:16.408Z,18.25
2017-09-23T18:59:44.030Z,17.40
2017-09-23T19:02:12.337Z,17.48
2017-09-23T19:04:39.918Z,24.20
2017-09-23T19:07:07.506Z,20.77
2017-09-23T19:09:35.098Z,18.83
2017-09-23T19:12:03.385Z,20.20
2017-09-23T19:14:31.689Z,17.02
2017-09-23T19:16:59.218Z,14.82
2017-09-23T19:19:27.546Z,19.77
2017-09-23T19:21:55.061Z,19.35
2017-09-23T19:24:22.602Z,16.20
2017-09-23T19:26:50.117Z,17.10
2017-09-23T19:29:17.655Z,17.43
2017-09-23T19:31:45.184Z,16.17
2017-09-23T19:34:13.476Z,17.52
2017-09-23T19:36:41.772Z,19.47
2017-09-23T19:39:09.290Z,17.07
2017-09-23T19:41:36.820Z,17.67
2017-09-23T19:44:04.332Z,16.62
2017-09-23T19:46:32.637Z,17.10
2017-09-23T19:49:00.197Z,19.30
2017-09-23T19:51:29.100Z,16.37
2017-09-23T19:53:56.654Z,18.70
2017-09-23T19:56:24.214Z,18.98
2017-09-23T19:58:51.785Z,17.37
2017-09-23T20:01:19.328Z,20.27
2017-09-23T20:03:47.252Z,17.48
2017-09-23T20:06:14.789Z,20.50
2017-09-23T20:08:42.381Z,22.17
2017-09-23T20:11:09.994Z,21.03
2017-09-23T20:13:37.514Z,19.87
2017-09-23T20:16:05.841Z,17.62
2017-09-23T20:18:33.401Z,18.50
2017-09-23T20:21:01.009Z,18.80
2017-09-23T20:23:29.333Z,20.87
2017-09-23T20:25:56.883Z,22.30
2017-09-23T20:28:24.418Z,17.90
2017-09-23T20:30:52.519Z,17.30
2017-09-23T20:33:20.095Z,14.63
2017-09-23T20:35:47.696Z,17.87
2017-09-23T20:38:16.009Z,20.47
2017-09-23T20:40:43.552Z,21.77
2017-09-23T20:43:11.876Z,19.70
2017-09-23T20:45:39.468Z,16.60
2017-09-23T20:48:07.813Z,15.97
2017-09-23T20:50:35.409Z,18.27
2017-09-23T20:53:02.953Z,17.93
2017-09-23T20:55:30.518Z,17.87
2017-09-23T20:57:58.073Z,20.93
2017-09-23T21:00:25.609Z,19.95
2017-09-23T21:02:53.180Z,18.90
2017-09-23T21:05:20.733Z,17.33
2017-09-23T21:07:48.306Z,21.02
2017-09-23T21:10:15.859Z,19.43
2017-09-23T21:12:43.434Z,20.50
2017-09-23T21:15:10.985Z,18.20
2017-09-23T21:17:38.609Z,18.80
2017-09-23T21:20:06.155Z,20.25
2017-09-23T21:22:34.467Z,20.75
2017-09-23T21:25:02.037Z,17.50
2017-09-23T21:27:29.614Z,20.48
2017-09-23T21:29:57.166Z,25.23
2017-09-23T21:32:24.693Z,22.20
2017-09-23T21:34:52.226Z,20.87
2017-09-23T21:37:20.530Z,18.77
2017-09-23T21:39:48.048Z,21.90
2017-09-23T21:42:15.587Z,24.40
2017-09-23T21:44:43.130Z,19.87
2017-09-23T21:47:10.675Z,21.87
2017-09-23T21:49:38.193Z,22.42
2017-09-23T21:52:05.770Z,17.70
2017-09-23T21:54:34.049Z,17.40
2017-09-23T21:57:02.345Z,19.10
2017-09-23T21:59:29.920Z,20.85
2017-09-23T22:01:57.436Z,20.90
2017-09-23T22:04:25.816Z,21.55
2017-09-23T22:06:53.340Z,20.92
2017-09-23T22:09:20.903Z,20.00
2017-09-23T22:11:48.460Z,19.42
2017-09-23T22:14:16.008Z,18.33
2017-09-23T22:16:43.540Z,22.62
2017-09-23T22:19:11.306Z,21.67
2017-09-23T22:21:38.858Z,22.17
2017-09-23T22:24:06.441Z,19.08
2017-09-23T22:26:33.994Z,23.62
2017-09-23T22:29:01.583Z,22.93
2017-09-23T22:31:29.108Z,24.87
2017-09-23T22:33:56.686Z,24.37
2017-09-23T22:36:24.217Z,22.60
2017-09-23T22:38:52.543Z,22.77
2017-09-23T22:41:20.121Z,26.12
2017-09-23T22:43:47.698Z,24.23
2017-09-23T22:46:15.273Z,24.90
2017-09-23T22:48:43.610Z,24.23
2017-09-23T22:51:11.164Z,26.73
2017-09-23T22:53:38.723Z,30.83
2017-09-23T22:56:06.272Z,27.05
2017-09-23T22:58:33.823Z,26.33
2017-09-23T23:01:01.374Z,24.73
2017-09-23T23:03:28.932Z,24.17
2017-09-23T23:05:56.518Z,29.15
2017-09-23T23:08:24.057Z,21.80
2017-09-23T23:10:51.630Z,29.35
2017-09-23T23:13:19.192Z,27.23
2017-09-23T23:15:46.739Z,24.90
2017-09-23T23:18:14.314Z,20.83
2017-09-23T23:20:41.840Z,24.25
2017-09-23T23:23:10.161Z,27.83
2017-09-23T23:25:37.680Z,27.85
2017-09-23T23:28:05.982Z,23.83
2017-09-23T23:30:33.494Z,26.73
2017-09-23T23:33:01.021Z,27.48
2017-09-23T23:35:28.548Z,31.80
2017-09-23T23:37:56.074Z,28.10
2017-09-23T23:40:23.673Z,29.55
2017-09-23T23:42:51.195Z,28.52
2017-09-23T23:45:18.754Z,29.27
2017-09-23T23:47:46.278Z,59.70
2017-09-23T23:50:13.781Z,28.27
2017-09-23T23:52:41.313Z,31.00
2017-09-23T23:55:08.851Z,28.77
2017-09-23T23:57:36.390Z,32.10
